createdAt,value
2017-09-26T00:01:05.892Z,9.08
2017-09-26T00:03:33.430Z,8.81
2017-09-26T00:06:00.957Z,8.85
2017-09-26T00:08:28.467Z,8.58
2017-09-26T00:10:55.971Z,8.65
2017-09-26T00:13:23.547Z,8.71
2017-09-26T00:15:51.048Z,8.83
2017-09-26T00:18:18.551Z,8.65
2017-09-26T00:20:46.062Z,8.50
2017-09-26T00:23:13.569Z,8.57
2017-09-26T00:25:41.152Z,8.38
2017-09-26T00:28:08.663Z,8.32
2017-09-26T00:30:36.269Z,8.27
2017-09-26T00:33:03.771Z,8.26
2017-09-26T00:35:31.283Z,8.36
2017-09-26T00:38:00.279Z,8.71
2017-09-26T00:40:27.784Z,8.60
2017-09-26T00:42:55.300Z,8.22
2017-09-26T00:45:22.821Z,8.04
2017-09-26T00:47:50.356Z,8.02
2017-09-26T00:50:17.855Z,8.25
2017-09-26T00:52:45.364Z,8.15
2017-09-26T00:55:12.880Z,8.41
2017-09-26T00:57:40.397Z,8.67
2017-09-26T01:00:07.910Z,8.45
2017-09-26T01:02:35.422Z,8.56
2017-09-26T01:05:03.315Z,8.54
2017-09-26T01:07:30.831Z,8.73
2017-09-26T01:09:58.374Z,8.91
2017-09-26T01:12:25.911Z,9.13
2017-09-26T01:14:53.419Z,9.33
2017-09-26T01:17:20.937Z,9.09
2017-09-26T01:19:48.434Z,9.18
2017-09-26T01:22:16.029Z,9.10
2017-09-26T01:24:43.531Z,9.14
2017-09-26T01:27:11.030Z,9.54
2017-09-26T01:29:38.564Z,9.52
2017-09-26T01:32:06.090Z,9.80
2017-09-26T01:34:33.607Z,9.92
2017-09-26T01:37:01.113Z,9.83
2017-09-26T01:39:28.622Z,9.86
2017-09-26T01:41:56.127Z,9.74
2017-09-26T01:44:23.636Z,9.49
2017-09-26T01:46:51.133Z,9.91
2017-09-26T01:49:18.652Z,9.63
2017-09-26T01:51:46.156Z,9.86
2017-09-26T01:54:13.662Z,9.41
2017-09-26T01:56:42.988Z,9.64
2017-09-26T01:59:12.019Z,9.73
2017-09-26T02:01:39.525Z,9.66
2017-09-26T02:04:07.087Z,9.58
2017-09-26T02:06:34.632Z,9.59
2017-09-26T02:09:02.150Z,9.42
2017-09-26T02:11:29.662Z,9.61
2017-09-26T02:13:57.204Z,9.91
2017-09-26T02:16:24.733Z,9.69
2017-09-26T02:18:52.272Z,9.71
2017-09-26T02:21:19.821Z,9.58
2017-09-26T02:23:47.333Z,10.00
2017-09-26T02:26:14.859Z,9.50
2017-09-26T02:28:42.396Z,9.55
2017-09-26T02:31:09.930Z,9.75
2017-09-26T02:33:37.475Z,9.70
2017-09-26T02:36:05.036Z,9.67
2017-09-26T02:38:32.598Z,9.45
2017-09-26T02:41:00.100Z,9.54
2017-09-26T02:43:27.620Z,9.93
2017-09-26T02:45:55.127Z,9.64
2017-09-26T02:48:22.646Z,9.55
2017-09-26T02:50:50.154Z,9.75
2017-09-26T02:53:17.664Z,9.57
2017-09-26T02:55:45.197Z,9.56
2017-09-26T02:58:12.709Z,9.62
2017-09-26T03:00:40.231Z,9.89
2017-09-26T03:03:07.766Z,9.98
2017-09-26T03:05:35.287Z,9.99
2017-09-26T03:08:02.819Z,9.96
2017-09-26T03:10:30.356Z,9.64
2017-09-26T03:12:57.872Z,9.59
2017-09-26T03:15:25.422Z,9.94
2017-09-26T03:17:52.927Z,9.85
2017-09-26T03:20:20.432Z,9.97
2017-09-26T03:22:47.946Z,10.10
2017-09-26T03:25:15.468Z,10.18
2017-09-26T03:27:42.989Z,10.16
2017-09-26T03:30:10.512Z,10.23
2017-09-26T03:32:38.532Z,10.06
2017-09-26T03:35:06.052Z,9.92
2017-09-26T03:37:33.574Z,9.60
2017-09-26T03:40:01.079Z,9.58
2017-09-26T03:42:28.582Z,9.54
2017-09-26T03:44:56.092Z,9.58
2017-09-26T03:47:23.617Z,9.84
2017-09-26T03:49:51.128Z,9.68
2017-09-26T03:52:18.641Z,9.71
2017-09-26T03:54:46.160Z,10.09
2017-09-26T03:57:13.678Z,9.88
2017-09-26T03:59:41.183Z,9.64
2017-09-26T04:02:08.712Z,9.51
2017-09-26T04:04:36.224Z,9.36
2017-09-26T04:07:03.725Z,9.57
2017-09-26T04:09:31.252Z,9.66
2017-09-26T04:11:58.762Z,9.66
2017-09-26T04:14:26.266Z,9.86
2017-09-26T04:16:53.786Z,10.00
2017-09-26T04:19:21.310Z,9.77
2017-09-26T04:21:48.831Z,9.62
2017-09-26T04:24:16.341Z,9.30
2017-09-26T04:26:43.860Z,9.35
2017-09-26T04:29:11.377Z,9.38
2017-09-26T04:31:38.886Z,9.39
2017-09-26T04:34:06.404Z,9.54
2017-09-26T04:36:33.915Z,9.62
2017-09-26T04:39:01.428Z,9.66
2017-09-26T04:41:28.947Z,9.69
2017-09-26T04:43:56.479Z,9.61
2017-09-26T04:46:23.982Z,9.69
2017-09-26T04:48:51.488Z,9.48
2017-09-26T04:51:19.011Z,9.33
2017-09-26T04:53:46.530Z,9.36
2017-09-26T04:56:14.040Z,9.60
2017-09-26T04:58:41.557Z,8.95
2017-09-26T05:01:09.060Z,9.05
2017-09-26T05:03:36.582Z,9.32
2017-09-26T05:06:04.101Z,9.22
2017-09-26T05:08:31.611Z,9.33
2017-09-26T05:10:59.151Z,9.22
2017-09-26T05:13:26.674Z,9.44
2017-09-26T05:15:54.202Z,9.35
2017-09-26T05:18:21.715Z,9.09
2017-09-26T05:20:49.242Z,9.13
2017-09-26T05:23:16.778Z,8.56
2017-09-26T05:25:44.289Z,8.25
2017-09-26T05:28:11.797Z,8.21
2017-09-26T05:30:39.306Z,8.15
2017-09-26T05:33:06.870Z,8.38
2017-09-26T05:35:34.376Z,8.69
2017-09-26T05:38:01.905Z,8.38
2017-09-26T05:40:29.423Z,8.12
2017-09-26T05:42:56.969Z,8.09
2017-09-26T05:45:24.544Z,8.10
2017-09-26T05:47:52.052Z,8.16
2017-09-26T05:50:19.559Z,8.20
2017-09-26T05:52:47.079Z,8.27
2017-09-26T05:55:14.619Z,8.27
2017-09-26T05:57:42.135Z,8.51
2017-09-26T06:00:09.650Z,8.74
2017-09-26T06:02:37.185Z,8.89
2017-09-26T06:05:04.699Z,8.75
2017-09-26T06:07:32.209Z,8.88
2017-09-26T06:09:59.734Z,8.88
2017-09-26T06:12:27.239Z,8.97
2017-09-26T06:14:54.756Z,9.25
2017-09-26T06:17:22.286Z,9.68
2017-09-26T06:19:49.801Z,9.78
2017-09-26T06:22:17.318Z,9.55
2017-09-26T06:24:44.843Z,9.34
2017-09-26T06:27:12.371Z,9.37
2017-09-26T06:29:39.899Z,9.36
2017-09-26T06:32:07.407Z,9.34
2017-09-26T06:34:34.940Z,9.40
2017-09-26T06:37:02.458Z,9.44
2017-09-26T06:39:29.963Z,9.49
2017-09-26T06:41:57.470Z,9.51
2017-09-26T06:44:24.979Z,10.00
2017-09-26T06:46:52.510Z,10.19
2017-09-26T06:49:20.056Z,10.36
2017-09-26T06:51:47.601Z,10.69
2017-09-26T06:54:15.106Z,11.02
2017-09-26T06:56:42.662Z,10.89
2017-09-26T06:59:10.210Z,11.10
2017-09-26T07:01:37.720Z,11.21
2017-09-26T07:04:05.272Z,11.45
2017-09-26T07:06:41.019Z,11.81
2017-09-26T07:09:09.491Z,11.92
2017-09-26T07:12:07.966Z,12.09
2017-09-26T07:14:35.486Z,12.66
2017-09-26T07:17:04.931Z,12.85
2017-09-26T07:19:44.225Z,13.27
2017-09-26T07:22:19.423Z,13.16
2017-09-26T07:24:46.955Z,13.29
2017-09-26T07:27:14.488Z,13.62
2017-09-26T07:29:42.032Z,13.42
2017-09-26T07:32:09.548Z,13.36
2017-09-26T07:34:37.071Z,13.71
2017-09-26T07:37:04.607Z,12.78
2017-09-26T07:39:32.124Z,13.34
2017-09-26T07:41:59.671Z,13.71
2017-09-26T07:44:27.196Z,13.04
2017-09-26T07:46:54.722Z,13.65
2017-09-26T07:49:22.243Z,14.39
2017-09-26T07:51:49.766Z,15.31
2017-09-26T07:54:17.332Z,15.92
2017-09-26T07:56:44.879Z,16.37
2017-09-26T07:59:12.404Z,16.79
2017-09-26T08:01:39.932Z,16.66
2017-09-26T08:04:08.282Z,16.18
2017-09-26T08:06:36.668Z,16.61
2017-09-26T08:09:05.251Z,16.89
2017-09-26T08:11:32.799Z,19.33
2017-09-26T08:14:00.314Z,20.82
2017-09-26T08:16:27.836Z,20.41
2017-09-26T08:18:55.355Z,22.22
2017-09-26T08:21:22.965Z,24.19
2017-09-26T08:23:50.492Z,24.55
2017-09-26T08:26:18.015Z,23.79
2017-09-26T08:28:45.538Z,23.01
2017-09-26T08:31:13.061Z,22.35
2017-09-26T08:33:40.609Z,22.07
2017-09-26T08:36:08.135Z,23.19
2017-09-26T08:38:35.655Z,25.32
2017-09-26T08:41:03.217Z,27.01
2017-09-26T08:43:30.755Z,27.37
2017-09-26T08:45:58.287Z,27.04
2017-09-26T08:48:25.838Z,26.42
2017-09-26T08:50:53.350Z,28.90
2017-09-26T08:53:20.868Z,28.15
2017-09-26T08:55:48.422Z,25.74
2017-09-26T08:58:15.958Z,27.69
2017-09-26T09:00:43.483Z,26.43
2017-09-26T09:03:10.995Z,25.12
2017-09-26T09:05:38.514Z,24.33
2017-09-26T09:08:06.152Z,27.46
2017-09-26T09:10:49.089Z,27.06
2017-09-26T09:13:16.633Z,29.87
2017-09-26T09:15:44.147Z,27.22
2017-09-26T09:18:11.684Z,28.53
2017-09-26T09:20:39.208Z,27.17
2017-09-26T09:23:06.816Z,26.53
2017-09-26T09:25:34.284Z,26.60
2017-09-26T09:28:01.791Z,28.39
2017-09-26T09:32:27.399Z,27.91
2017-09-26T09:34:54.936Z,29.73
2017-09-26T09:37:22.440Z,26.17
2017-09-26T09:39:49.955Z,28.08
2017-09-26T09:42:17.474Z,27.95
2017-09-26T09:44:44.993Z,26.37
2017-09-26T09:47:12.520Z,26.13
2017-09-26T09:49:40.052Z,29.22
2017-09-26T09:52:07.577Z,28.29
2017-09-26T09:54:35.140Z,29.05
2017-09-26T09:57:02.742Z,30.53
2017-09-26T09:59:30.287Z,29.12
2017-09-26T10:01:57.793Z,30.07
2017-09-26T10:04:25.343Z,27.28
2017-09-26T10:06:53.031Z,28.33
2017-09-26T10:09:20.535Z,26.80
2017-09-26T10:11:48.053Z,30.45
2017-09-26T10:14:15.631Z,29.62
2017-09-26T10:16:43.294Z,29.68
2017-09-26T10:19:10.851Z,29.76
2017-09-26T10:21:38.352Z,26.88
2017-09-26T10:24:05.876Z,29.58
2017-09-26T10:26:33.390Z,28.72
2017-09-26T10:29:00.905Z,27.26
2017-09-26T10:31:28.438Z,28.60
2017-09-26T10:33:56.160Z,28.82
2017-09-26T10:36:23.691Z,28.96
2017-09-26T10:38:51.214Z,31.11
2017-09-26T10:41:18.738Z,28.97
2017-09-26T10:43:46.261Z,29.92
2017-09-26T10:46:13.814Z,29.67
2017-09-26T10:48:41.351Z,29.12
2017-09-26T10:51:08.885Z,29.98
2017-09-26T10:53:36.408Z,29.92
2017-09-26T10:56:03.920Z,29.37
2017-09-26T10:58:31.433Z,28.47
2017-09-26T11:00:58.968Z,29.67
2017-09-26T11:03:26.602Z,28.86
2017-09-26T11:05:54.115Z,29.45
2017-09-26T11:08:21.650Z,29.35
2017-09-26T11:10:49.173Z,28.79
2017-09-26T11:13:16.700Z,28.54
2017-09-26T11:15:44.227Z,29.55
2017-09-26T11:18:11.747Z,31.04
2017-09-26T11:20:39.308Z,30.91
2017-09-26T11:23:06.842Z,30.08
2017-09-26T11:25:34.377Z,31.10
2017-09-26T11:28:01.908Z,30.46
2017-09-26T11:30:29.427Z,30.72
2017-09-26T11:32:56.943Z,29.43
2017-09-26T11:35:24.465Z,29.40
2017-09-26T11:37:51.979Z,31.54
2017-09-26T11:40:19.510Z,31.43
2017-09-26T11:42:47.058Z,30.98
2017-09-26T11:45:14.575Z,31.49
2017-09-26T11:47:42.106Z,31.43
2017-09-26T11:50:09.635Z,29.01
2017-09-26T11:52:37.174Z,30.24
2017-09-26T11:55:04.743Z,31.89
2017-09-26T11:57:32.285Z,32.03
2017-09-26T11:59:59.856Z,31.16
2017-09-26T12:02:27.395Z,29.75
2017-09-26T12:04:54.962Z,29.63
2017-09-26T12:07:22.495Z,30.49
2017-09-26T12:09:50.015Z,29.24
2017-09-26T12:12:17.549Z,29.70
2017-09-26T12:14:45.064Z,30.26
2017-09-26T12:17:12.592Z,31.74
2017-09-26T12:19:40.133Z,31.24
2017-09-26T12:22:07.678Z,30.13
2017-09-26T12:24:35.193Z,28.39
2017-09-26T12:27:02.789Z,29.50
2017-09-26T12:29:30.328Z,29.81
2017-09-26T12:31:57.856Z,32.26
2017-09-26T12:34:25.392Z,30.97
2017-09-26T12:36:52.924Z,30.91
2017-09-26T12:39:20.465Z,31.31
2017-09-26T12:41:47.989Z,30.36
2017-09-26T12:44:15.516Z,30.07
2017-09-26T12:46:43.049Z,31.33
2017-09-26T12:49:10.575Z,32.76
2017-09-26T12:51:38.096Z,31.78
2017-09-26T12:54:05.652Z,27.69
2017-09-26T12:56:33.234Z,26.01
2017-09-26T12:59:00.784Z,24.19
2017-09-26T13:01:28.350Z,24.67
2017-09-26T13:03:55.858Z,24.28
2017-09-26T13:06:23.374Z,26.46
2017-09-26T13:08:50.885Z,25.46
2017-09-26T13:11:18.417Z,24.65
2017-09-26T13:13:45.950Z,23.79
2017-09-26T13:16:13.538Z,23.11
2017-09-26T13:18:41.080Z,25.43
2017-09-26T13:21:08.658Z,25.16
2017-09-26T13:23:36.176Z,24.55
2017-09-26T13:26:03.717Z,24.90
2017-09-26T13:28:31.248Z,27.03
2017-09-26T13:30:58.797Z,27.76
2017-09-26T13:33:26.338Z,29.36
2017-09-26T13:35:53.881Z,27.34
2017-09-26T13:38:21.409Z,25.96
2017-09-26T13:40:48.933Z,24.45
2017-09-26T13:43:16.467Z,23.98
2017-09-26T13:45:44.447Z,23.61
2017-09-26T13:48:11.971Z,23.36
2017-09-26T13:50:39.505Z,23.58
2017-09-26T13:53:07.100Z,23.14
2017-09-26T13:55:34.614Z,22.44
2017-09-26T13:58:02.214Z,22.37
2017-09-26T14:00:29.752Z,23.67
2017-09-26T14:02:57.284Z,23.30
2017-09-26T14:05:24.812Z,22.96
2017-09-26T14:07:52.323Z,22.20
2017-09-26T14:10:19.850Z,22.14
2017-09-26T14:12:47.393Z,21.93
2017-09-26T14:15:14.919Z,21.62
2017-09-26T14:17:42.470Z,21.71
2017-09-26T14:20:09.992Z,21.83
2017-09-26T14:22:37.515Z,21.49
2017-09-26T14:25:05.071Z,21.34
2017-09-26T14:27:32.579Z,21.11
2017-09-26T14:30:00.100Z,20.94
2017-09-26T14:32:27.712Z,20.72
2017-09-26T14:34:55.227Z,20.52
2017-09-26T14:37:22.752Z,20.55
2017-09-26T14:39:50.254Z,20.39
2017-09-26T14:42:17.765Z,20.24
2017-09-26T14:44:45.275Z,20.28
2017-09-26T14:47:12.802Z,19.75
2017-09-26T14:49:41.305Z,19.47
2017-09-26T14:52:08.831Z,19.38
2017-09-26T14:54:36.385Z,18.36
2017-09-26T14:57:03.915Z,17.89
2017-09-26T14:59:31.447Z,17.70
2017-09-26T15:01:58.985Z,17.35
2017-09-26T15:04:26.515Z,16.99
2017-09-26T15:06:54.056Z,17.03
2017-09-26T15:09:21.574Z,17.06
2017-09-26T15:11:49.105Z,16.97
2017-09-26T15:14:16.619Z,16.74
2017-09-26T15:16:44.142Z,16.77
2017-09-26T15:19:11.673Z,16.67
2017-09-26T15:21:39.202Z,16.13
2017-09-26T15:24:06.718Z,16.23
2017-09-26T15:26:34.323Z,16.67
2017-09-26T15:29:01.831Z,17.03
2017-09-26T15:31:29.360Z,17.14
2017-09-26T15:33:56.947Z,16.85
2017-09-26T15:36:24.464Z,16.80
2017-09-26T15:38:51.992Z,16.85
2017-09-26T15:41:19.517Z,16.67
2017-09-26T15:43:47.061Z,16.76
2017-09-26T15:46:14.575Z,16.81
2017-09-26T15:48:42.111Z,17.02
2017-09-26T15:51:09.649Z,16.74
2017-09-26T15:53:37.166Z,16.95
2017-09-26T15:56:04.689Z,16.66
2017-09-26T15:58:32.213Z,17.16
2017-09-26T16:00:59.734Z,17.16
2017-09-26T16:03:27.267Z,17.41
2017-09-26T16:05:54.789Z,17.35
2017-09-26T16:08:22.331Z,17.48
2017-09-26T16:10:49.859Z,17.06
2017-09-26T16:13:17.374Z,17.16
2017-09-26T16:15:44.904Z,17.08
2017-09-26T16:18:12.544Z,16.95
2017-09-26T16:20:40.072Z,16.59
2017-09-26T16:23:07.616Z,16.32
2017-09-26T16:25:35.173Z,16.08
2017-09-26T16:28:02.688Z,15.51
2017-09-26T16:30:30.214Z,15.38
2017-09-26T16:32:57.849Z,15.82
2017-09-26T16:35:25.395Z,15.76
2017-09-26T16:37:52.937Z,15.79
2017-09-26T16:40:20.536Z,15.95
2017-09-26T16:42:48.065Z,15.94
2017-09-26T16:45:15.603Z,15.77
2017-09-26T16:47:43.199Z,15.81
2017-09-26T16:50:10.712Z,16.01
2017-09-26T16:52:38.235Z,16.25
2017-09-26T16:55:05.847Z,15.88
2017-09-26T16:57:33.434Z,15.59
2017-09-26T17:00:00.974Z,15.54
2017-09-26T17:02:28.510Z,15.46
2017-09-26T17:04:56.081Z,15.43
2017-09-26T17:07:23.591Z,15.44
2017-09-26T17:09:51.115Z,15.03
2017-09-26T17:12:18.666Z,14.87
2017-09-26T17:14:49.150Z,14.92
2017-09-26T17:17:37.322Z,14.92
2017-09-26T17:20:06.618Z,14.72
2017-09-26T17:22:34.158Z,14.68
2017-09-26T17:25:01.696Z,14.55
2017-09-26T17:27:29.240Z,14.60
2017-09-26T17:29:56.813Z,14.88
2017-09-26T17:32:24.335Z,14.82
2017-09-26T17:34:52.475Z,14.84
2017-09-26T17:37:20.023Z,14.78
2017-09-26T17:39:47.547Z,14.67
2017-09-26T17:42:15.198Z,14.86
2017-09-26T17:44:42.742Z,14.92
2017-09-26T17:47:10.264Z,14.81
2017-09-26T17:49:37.806Z,14.91
2017-09-26T17:52:05.352Z,14.91
2017-09-26T17:54:33.130Z,14.45
2017-09-26T17:57:00.715Z,14.38
2017-09-26T17:59:28.251Z,14.40
2017-09-26T18:01:55.767Z,14.57
2017-09-26T18:04:23.299Z,14.41
2017-09-26T18:06:50.939Z,14.48
2017-09-26T18:09:18.548Z,14.57
2017-09-26T18:11:46.095Z,14.46
2017-09-26T18:14:20.199Z,15.03
2017-09-26T18:16:48.292Z,14.74
2017-09-26T18:19:16.777Z,14.91
2017-09-26T18:21:44.329Z,14.86
2017-09-26T18:24:11.840Z,14.29
2017-09-26T18:26:46.289Z,14.41
2017-09-26T18:29:20.820Z,14.26
2017-09-26T18:31:50.253Z,14.63
2017-09-26T18:34:17.767Z,14.44
2017-09-26T18:36:45.296Z,14.53
2017-09-26T18:39:12.848Z,14.38
2017-09-26T18:41:40.467Z,14.18
2017-09-26T18:44:08.008Z,14.20
2017-09-26T18:46:35.541Z,14.14
2017-09-26T18:49:03.087Z,14.40
2017-09-26T18:51:30.624Z,14.22
2017-09-26T18:53:58.131Z,14.02
2017-09-26T18:56:25.654Z,14.01
2017-09-26T18:58:53.187Z,14.14
2017-09-26T19:01:20.707Z,14.04
2017-09-26T19:03:48.219Z,14.01
2017-09-26T19:06:15.748Z,14.32
2017-09-26T19:08:43.290Z,14.84
2017-09-26T19:11:10.828Z,14.48
2017-09-26T19:13:38.378Z,14.25
2017-09-26T19:16:05.948Z,14.03
2017-09-26T19:18:33.464Z,14.02
2017-09-26T19:21:01.086Z,14.00
2017-09-26T19:23:28.707Z,13.86
2017-09-26T19:25:56.237Z,14.16
2017-09-26T19:28:23.763Z,14.17
2017-09-26T19:30:51.341Z,14.18
2017-09-26T19:33:18.899Z,14.28
2017-09-26T19:35:46.428Z,14.05
2017-09-26T19:38:13.958Z,13.86
2017-09-26T19:40:41.571Z,13.82
2017-09-26T19:43:09.208Z,13.97
2017-09-26T19:45:36.841Z,14.12
2017-09-26T19:48:04.391Z,14.23
2017-09-26T19:50:31.956Z,14.14
2017-09-26T19:52:59.490Z,14.16
2017-09-26T19:55:27.044Z,14.19
2017-09-26T19:57:54.597Z,14.23
2017-09-26T20:00:22.131Z,14.54
2017-09-26T20:02:49.709Z,14.82
2017-09-26T20:05:17.255Z,14.57
2017-09-26T20:07:44.783Z,14.44
2017-09-26T20:10:12.294Z,14.46
2017-09-26T20:12:39.845Z,14.17
2017-09-26T20:15:07.370Z,13.88
2017-09-26T20:17:34.900Z,13.84
2017-09-26T20:20:02.410Z,13.83
2017-09-26T20:22:29.938Z,13.60
2017-09-26T20:24:57.466Z,13.54
2017-09-26T20:27:25.004Z,13.84
2017-09-26T20:29:52.541Z,14.06
2017-09-26T20:32:20.120Z,13.83
2017-09-26T20:34:47.658Z,13.68
2017-09-26T20:37:15.268Z,13.92
2017-09-26T20:39:42.812Z,13.97
2017-09-26T20:42:10.338Z,13.82
2017-09-26T20:44:37.861Z,13.75
2017-09-26T20:47:05.390Z,13.60
2017-09-26T20:49:32.928Z,13.53
2017-09-26T20:52:00.469Z,13.67
2017-09-26T20:54:28.003Z,13.77
2017-09-26T20:56:55.532Z,13.80
2017-09-26T20:59:23.060Z,13.59
2017-09-26T21:01:50.573Z,13.40
2017-09-26T21:04:18.120Z,13.41
2017-09-26T21:06:45.664Z,13.67
2017-09-26T21:09:13.279Z,13.91
2017-09-26T21:11:40.790Z,13.96
2017-09-26T21:14:08.305Z,13.66
2017-09-26T21:16:36.760Z,13.65
2017-09-26T21:19:04.274Z,13.69
2017-09-26T21:21:31.794Z,14.09
2017-09-26T21:23:59.306Z,13.93
2017-09-26T21:26:26.908Z,13.80
2017-09-26T21:28:54.460Z,13.69
2017-09-26T21:31:22.006Z,13.47
2017-09-26T21:33:49.543Z,13.43
2017-09-26T21:36:17.079Z,13.15
2017-09-26T21:38:44.704Z,12.91
2017-09-26T21:41:12.240Z,12.96
2017-09-26T21:43:39.821Z,12.96
2017-09-26T21:46:07.347Z,13.14
2017-09-26T21:48:34.896Z,13.09
2017-09-26T21:51:02.430Z,13.14
2017-09-26T21:53:29.974Z,13.18
2017-09-26T21:55:57.591Z,13.57
2017-09-26T21:58:25.148Z,13.72
2017-09-26T22:00:52.834Z,13.60
2017-09-26T22:03:20.358Z,13.33
2017-09-26T22:05:47.871Z,13.15
2017-09-26T22:08:15.388Z,12.87
2017-09-26T22:10:42.910Z,12.74
2017-09-26T22:13:10.446Z,12.73
2017-09-26T22:15:37.966Z,12.83
2017-09-26T22:18:05.541Z,12.79
2017-09-26T22:20:33.075Z,12.67
2017-09-26T22:23:00.583Z,12.55
2017-09-26T22:25:28.090Z,12.55
2017-09-26T22:27:55.617Z,12.47
2017-09-26T22:30:23.174Z,12.49
2017-09-26T22:32:50.689Z,12.67
2017-09-26T22:35:18.348Z,12.45
2017-09-26T22:37:45.886Z,12.42
2017-09-26T22:40:13.391Z,12.48
2017-09-26T22:42:40.904Z,12.51
2017-09-26T22:45:08.428Z,12.57
2017-09-26T22:47:35.959Z,12.52
2017-09-26T22:50:03.496Z,12.40
2017-09-26T22:52:31.012Z,12.64
2017-09-26T22:54:58.535Z,12.37
2017-09-26T22:57:26.058Z,12.25
2017-09-26T22:59:53.580Z,11.91
2017-09-26T23:02:21.103Z,11.69
2017-09-26T23:04:48.611Z,11.78
2017-09-26T23:07:16.164Z,11.79
2017-09-26T23:09:43.699Z,11.84
2017-09-26T23:12:11.220Z,11.81
2017-09-26T23:14:38.742Z,11.73
2017-09-26T23:17:06.248Z,11.60
2017-09-26T23:19:33.753Z,11.62
2017-09-26T23:22:01.295Z,11.79
2017-09-26T23:24:28.806Z,11.51
2017-09-26T23:26:56.336Z,11.43
2017-09-26T23:29:23.854Z,11.49
2017-09-26T23:31:51.376Z,11.82
2017-09-26T23:34:18.961Z,11.70
2017-09-26T23:36:46.475Z,12.12
2017-09-26T23:39:13.993Z,11.97
2017-09-26T23:41:41.505Z,11.77
2017-09-26T23:44:09.023Z,11.72
2017-09-26T23:46:36.552Z,11.83
2017-09-26T23:49:04.070Z,11.75
2017-09-26T23:51:31.586Z,11.63
2017-09-26T23:53:59.126Z,11.67
2017-09-26T23:56:26.643Z,11.62
2017-09-26T23:58:54.171Z,11.73
